Time;durP1;ratioP1;P1;durP2;ratioP2;P2;SDS_P1;SDS_P2;PMS_P1;PMS_P2;Temp;Humidity;BMP_temperature;BMP_pressure;BME280_temperature;BME280_humidity;BME280_pressure;Samples;Min_cycle;Max_cycle;Signal;HPM_P1;HPM_P2
2021/11/13 00:00:14;;;;;;;79.15;39.15;;;2.80;99.90;;;;;;4955311;29;20035;-67
2021/11/13 00:02:40;;;;;;;74.55;40.33;;;2.20;99.90;;;;;;4952622;29;20123;-67
2021/11/13 00:05:06;;;;;;;71.20;39.25;;;2.80;99.90;;;;;;4953533;29;20110;-67
2021/11/13 00:07:32;;;;;;;80.50;39.17;;;2.20;99.90;;;;;;4954867;29;20035;-66
2021/11/13 00:09:59;;;;;;;69.25;37.25;;;2.10;99.90;;;;;;4953177;29;20495;-67
2021/11/13 00:12:25;;;;;;;63.03;36.85;;;1.90;99.90;;;;;;4955476;29;20363;-66
2021/11/13 00:14:51;;;;;;;78.80;38.00;;;1.80;99.90;;;;;;4954179;29;20078;-66
2021/11/13 00:17:16;;;;;;;59.58;36.70;;;2.00;99.90;;;;;;4954948;29;20027;-67
2021/11/13 00:19:43;;;;;;;75.72;39.00;;;1.90;99.90;;;;;;4981769;28;20133;-66
2021/11/13 00:22:10;;;;;;;108.53;40.85;;;1.90;99.90;;;;;;4994457;28;20030;-65
2021/11/13 00:24:36;;;;;;;80.72;38.42;;;1.70;99.90;;;;;;4993033;28;20536;-65
2021/11/13 00:27:05;;;;;;;80.63;40.00;;;1.80;99.90;;;;;;4993889;28;20109;-67
2021/11/13 00:29:31;;;;;;;74.57;40.78;;;1.80;99.90;;;;;;4993955;28;20113;-66
2021/11/13 00:31:56;;;;;;;74.93;40.20;;;2.00;99.90;;;;;;4993781;28;20149;-67
2021/11/13 00:34:23;;;;;;;69.10;42.00;;;2.30;99.90;;;;;;4993336;28;20100;-67
2021/11/13 00:36:49;;;;;;;93.78;41.15;;;2.00;99.90;;;;;;4993763;28;20052;-66
2021/11/13 00:39:15;;;;;;;64.50;40.20;;;2.20;99.90;;;;;;4993129;28;20110;-67
2021/11/13 00:41:40;;;;;;;63.92;40.60;;;2.10;99.90;;;;;;4993199;28;20112;-67
2021/11/13 00:44:06;;;;;;;75.55;39.08;;;1.90;99.90;;;;;;4992693;28;20377;-67
2021/11/13 00:46:32;;;;;;;66.18;40.55;;;2.80;99.90;;;;;;4992062;28;20109;-67
2021/11/13 00:48:58;;;;;;;69.30;38.35;;;2.30;99.90;;;;;;4992285;28;20053;-66
2021/11/13 00:51:23;;;;;;;57.90;36.58;;;1.90;99.90;;;;;;4992636;28;20397;-67
2021/11/13 00:53:49;;;;;;;61.42;38.40;;;2.00;99.90;;;;;;4992771;28;20030;-67
2021/11/13 00:56:15;;;;;;;67.20;39.13;;;2.00;99.90;;;;;;4991940;28;20073;-67
2021/11/13 00:58:41;;;;;;;61.53;37.90;;;2.10;99.90;;;;;;4992338;28;20026;-68
2021/11/13 01:01:06;;;;;;;62.55;37.05;;;2.10;99.90;;;;;;4993224;28;20033;-67
2021/11/13 01:03:33;;;;;;;73.20;38.83;;;2.70;99.90;;;;;;4992087;28;20030;-66
2021/11/13 01:05:59;;;;;;;63.85;37.53;;;2.20;99.90;;;;;;4991863;28;20097;-66
2021/11/13 01:08:25;;;;;;;59.35;36.22;;;2.20;99.90;;;;;;4992077;28;20497;-67
2021/11/13 01:10:52;;;;;;;129.68;38.80;;;2.80;99.90;;;;;;4992346;28;20031;-67
2021/11/13 01:13:19;;;;;;;98.10;37.05;;;1.90;99.90;;;;;;4992186;28;20549;-68
2021/11/13 01:15:45;;;;;;;72.43;36.67;;;2.00;99.90;;;;;;4991542;28;20469;-66
2021/11/13 01:18:11;;;;;;;55.63;37.22;;;2.90;99.90;;;;;;4991789;28;20046;-67
2021/11/13 01:20:37;;;;;;;61.20;38.10;;;1.90;99.90;;;;;;4974641;28;20041;-67
2021/11/13 01:23:03;;;;;;;66.40;38.65;;;1.90;99.90;;;;;;4992041;28;20077;-67
2021/11/13 01:25:30;;;;;;;61.40;38.15;;;1.90;99.90;;;;;;4991252;28;20026;-67
2021/11/13 01:27:56;;;;;;;63.40;38.03;;;1.90;99.90;;;;;;4991928;28;20030;-67
2021/11/13 01:30:22;;;;;;;57.38;37.03;;;1.40;99.90;;;;;;4992044;28;20031;-66
2021/11/13 01:32:48;;;;;;;61.42;37.95;;;1.90;99.90;;;;;;4992090;28;20026;-66
2021/11/13 01:35:15;;;;;;;68.32;39.20;;;2.00;99.90;;;;;;4990850;28;20029;-66
2021/11/13 01:37:41;;;;;;;54.95;35.58;;;2.20;99.90;;;;;;4991862;28;20041;-66
2021/11/13 01:40:09;;;;;;;61.72;38.55;;;1.80;99.90;;;;;;4991989;28;20025;-67
2021/11/13 01:42:36;;;;;;;60.65;38.15;;;1.50;99.90;;;;;;4991720;28;20030;-68
2021/11/13 01:45:04;;;;;;;59.67;37.13;;;2.20;99.90;;;;;;4991272;28;20037;-68
2021/11/13 01:47:30;;;;;;;56.60;37.38;;;1.70;99.90;;;;;;4991935;28;20034;-67
2021/11/13 01:49:55;;;;;;;80.50;38.75;;;1.60;99.90;;;;;;4991464;28;20022;-68
2021/11/13 01:52:21;;;;;;;71.57;38.35;;;1.70;99.90;;;;;;4992188;28;20441;-69
2021/11/13 01:54:47;;;;;;;60.08;38.03;;;1.70;99.90;;;;;;4990960;28;20057;-68
2021/11/13 01:57:20;;;;;;;62.20;38.95;;;2.50;99.90;;;;;;4991709;28;20394;-66
2021/11/13 01:59:49;;;;;;;63.33;39.35;;;1.90;99.90;;;;;;4991549;28;20081;-68
2021/11/13 02:02:16;;;;;;;59.25;37.70;;;2.20;99.90;;;;;;4992159;28;20046;-66
2021/11/13 02:04:42;;;;;;;61.65;38.45;;;;;;;;;;4991210;28;20526;-66
2021/11/13 02:07:07;;;;;;;59.33;37.88;;;2.00;99.90;;;;;;4992091;28;20026;-67
2021/11/13 02:09:33;;;;;;;126.25;42.08;;;2.20;99.90;;;;;;4991592;28;20030;-68
2021/11/13 02:11:59;;;;;;;55.58;35.58;;;2.10;99.90;;;;;;4991876;28;20134;-67
2021/11/13 02:14:29;;;;;;;54.38;34.55;;;2.10;99.90;;;;;;4991480;28;20054;-66
2021/11/13 02:16:55;;;;;;;60.38;34.28;;;2.10;99.90;;;;;;4991913;28;20022;-67
2021/11/13 02:19:21;;;;;;;51.28;34.58;;;1.80;99.90;;;;;;4991785;28;20042;-67
2021/11/13 02:21:47;;;;;;;73.18;35.25;;;2.80;99.90;;;;;;4995647;28;20092;-67
2021/11/13 02:24:13;;;;;;;50.67;34.05;;;2.10;99.90;;;;;;4995774;28;20038;-67
2021/11/13 02:26:39;;;;;;;74.10;35.33;;;1.60;99.90;;;;;;4995022;28;20369;-68
2021/11/13 02:29:05;;;;;;;48.92;33.90;;;1.80;99.90;;;;;;4995682;28;20061;-66
2021/11/13 02:31:42;;;;;;;53.50;34.63;;;2.00;99.90;;;;;;4995682;28;20074;-66
2021/11/13 02:34:11;;;;;;;84.55;36.08;;;2.10;99.90;;;;;;4995226;28;20523;-65
2021/11/13 02:36:37;;;;;;;80.95;37.67;;;2.00;99.90;;;;;;4994745;28;20101;-66
2021/11/13 02:39:07;;;;;;;176.95;40.47;;;1.90;99.90;;;;;;4995269;28;20095;-66
2021/11/13 02:41:33;;;;;;;106.50;35.35;;;1.90;99.90;;;;;;4995542;28;20399;-67
2021/11/13 02:44:00;;;;;;;63.97;36.10;;;2.80;99.90;;;;;;4995431;28;20133;-67
2021/11/13 02:46:27;;;;;;;80.43;34.78;;;1.60;99.90;;;;;;4994592;28;20400;-67
2021/11/13 02:48:52;;;;;;;50.58;32.58;;;1.80;99.90;;;;;;4995523;28;20110;-66
2021/11/13 02:51:18;;;;;;;58.83;31.92;;;1.90;99.90;;;;;;4995230;28;20113;-66
2021/11/13 02:53:49;;;;;;;57.83;33.80;;;1.80;99.90;;;;;;4995219;28;20130;-67
2021/11/13 02:56:15;;;;;;;58.75;31.80;;;1.80;99.90;;;;;;4994499;28;20027;-68
2021/11/13 02:58:41;;;;;;;97.72;34.63;;;1.70;99.90;;;;;;4977712;28;20353;-67
2021/11/13 03:01:13;;;;;;;55.25;35.17;;;1.60;99.90;;;;;;4995200;28;20037;-68
2021/11/13 03:03:39;;;;;;;;;;;1.80;99.90;;;;;;4995407;28;20031;-66
2021/11/13 03:06:11;;;;;;;51.00;33.05;;;1.80;99.90;;;;;;4994022;28;20007;-67
2021/11/13 03:08:37;;;;;;;57.28;33.72;;;1.70;99.90;;;;;;4994913;28;20026;-66
2021/11/13 03:11:05;;;;;;;65.60;34.60;;;1.40;99.90;;;;;;4995278;28;20033;-67
2021/11/13 03:13:32;;;;;;;55.97;31.88;;;1.90;99.90;;;;;;4994942;28;20117;-67
2021/11/13 03:15:59;;;;;;;128.85;34.55;;;1.80;99.90;;;;;;4994031;28;20079;-66
2021/11/13 03:18:25;;;;;;;45.53;30.73;;;1.60;99.90;;;;;;4994556;28;20039;-67
2021/11/13 03:20:51;;;;;;;46.33;30.88;;;2.00;99.90;;;;;;4994378;28;20662;-67
2021/11/13 03:23:18;;;;;;;58.00;33.45;;;1.90;99.90;;;;;;4994760;28;20038;-67
2021/11/13 03:26:13;;;;;;;53.58;33.25;;;1.30;99.90;;;;;;4994075;28;20548;-66
2021/11/13 03:28:41;;;;;;;184.70;38.17;;;1.90;99.90;;;;;;4993948;28;20475;-66
2021/11/13 03:31:07;;;;;;;57.35;35.85;;;2.00;99.90;;;;;;4994028;28;20026;-66
2021/11/13 03:33:36;;;;;;;77.65;36.13;;;2.30;99.90;;;;;;4994714;28;20027;-67
2021/11/13 03:36:03;;;;;;;53.45;33.80;;;1.80;99.90;;;;;;4993670;28;20030;-66
2021/11/13 03:38:29;;;;;;;47.92;32.55;;;1.90;99.90;;;;;;4994217;28;20381;-67
2021/11/13 03:40:54;;;;;;;49.30;33.00;;;1.80;99.90;;;;;;4995207;28;20029;-67
2021/11/13 03:43:20;;;;;;;48.20;31.33;;;1.80;99.90;;;;;;4994513;28;20034;-68
2021/11/13 03:45:48;;;;;;;47.33;32.53;;;1.90;99.90;;;;;;4993976;28;20472;-67
2021/11/13 03:48:14;;;;;;;46.22;31.15;;;1.90;99.90;;;;;;4994096;28;20029;-67
2021/11/13 03:50:40;;;;;;;66.25;30.45;;;2.40;99.90;;;;;;4993892;28;20018;-67
2021/11/13 03:53:07;;;;;;;58.88;29.90;;;1.80;99.90;;;;;;4994375;28;20110;-68
2021/11/13 03:55:33;;;;;;;47.65;28.13;;;1.90;99.90;;;;;;4993256;28;20033;-66
2021/11/13 03:57:59;;;;;;;59.78;30.10;;;2.70;99.90;;;;;;4994037;28;20068;-67
2021/11/13 04:00:26;;;;;;;44.45;28.63;;;1.80;99.90;;;;;;4994088;28;20054;-68
2021/11/13 04:02:52;;;;;;;41.47;28.52;;;1.70;99.90;;;;;;4994176;28;20412;-65
2021/11/13 04:05:20;;;;;;;43.38;29.50;;;1.80;99.90;;;;;;4993132;28;20035;-67
2021/11/13 04:07:46;;;;;;;39.53;28.83;;;1.80;99.90;;;;;;4993957;28;20392;-67
2021/11/13 04:10:13;;;;;;;45.10;29.75;;;1.70;99.90;;;;;;4993524;28;20026;-67
2021/11/13 04:12:39;;;;;;;43.83;28.73;;;1.90;99.90;;;;;;4993856;28;20644;-68
2021/11/13 04:15:06;;;;;;;42.08;27.52;;;1.80;99.90;;;;;;4993148;28;20026;-66
2021/11/13 04:17:32;;;;;;;41.63;28.27;;;1.80;99.90;;;;;;4993729;28;20018;-67
2021/11/13 04:19:58;;;;;;;40.85;28.52;;;2.00;99.90;;;;;;5063014;22;20069;-63
2021/11/13 04:22:24;;;;;;;48.95;31.80;;;2.70;99.90;;;;;;5064520;28;20100;-64
2021/11/13 04:24:50;;;;;;;48.30;31.05;;;1.90;99.90;;;;;;5074970;28;20028;-63
2021/11/13 04:27:16;;;;;;;44.55;29.45;;;2.00;99.90;;;;;;5077166;28;20474;-63
2021/11/13 04:29:46;;;;;;;44.28;30.25;;;2.10;99.90;;;;;;5074296;28;20079;-63
2021/11/13 04:32:13;;;;;;;41.78;29.02;;;2.00;99.90;;;;;;5072507;28;20024;-62
2021/11/13 04:34:48;;;;;;;39.38;27.63;;;2.00;99.90;;;;;;5071193;28;20067;-62
2021/11/13 04:37:17;;;;;;;40.88;28.17;;;2.00;99.90;;;;;;5072441;28;20103;-63
2021/11/13 04:39:43;;;;;;;40.03;28.05;;;2.00;99.90;;;;;;5072731;28;20332;-62
2021/11/13 04:42:10;;;;;;;40.30;28.05;;;1.90;99.90;;;;;;5072636;28;20028;-62
2021/11/13 04:44:36;;;;;;;40.00;27.60;;;1.90;99.90;;;;;;5070833;28;20033;-63
2021/11/13 04:47:01;;;;;;;39.92;27.80;;;3.50;99.90;;;;;;5072333;28;20032;-62
2021/11/13 04:49:27;;;;;;;39.58;27.15;;;1.90;99.90;;;;;;5067980;28;20112;-65
2021/11/13 04:51:53;;;;;;;41.00;28.80;;;2.10;99.90;;;;;;5052113;28;20024;-62
2021/11/13 04:54:19;;;;;;;39.58;27.80;;;1.90;99.90;;;;;;5051574;28;20451;-62
2021/11/13 04:56:44;;;;;;;41.75;27.30;;;2.10;99.90;;;;;;5050750;28;20029;-62
2021/11/13 04:59:10;;;;;;;37.03;26.20;;;2.00;99.90;;;;;;5052136;28;20387;-62
2021/11/13 05:01:36;;;;;;;37.70;27.17;;;2.50;99.90;;;;;;5052126;28;20021;-61
2021/11/13 05:04:01;;;;;;;39.33;27.05;;;2.10;99.90;;;;;;5052140;28;20449;-61
2021/11/13 05:06:29;;;;;;;40.63;27.27;;;2.50;99.90;;;;;;5050866;28;20100;-63
2021/11/13 05:08:56;;;;;;;38.63;26.45;;;2.40;99.90;;;;;;5051955;28;20044;-63
2021/11/13 05:11:22;;;;;;;38.45;26.45;;;2.20;99.90;;;;;;5052122;28;20027;-62
2021/11/13 05:13:48;;;;;;;39.97;27.90;;;2.40;99.90;;;;;;5052131;28;20017;-63
2021/11/13 05:16:13;;;;;;;40.80;26.83;;;2.40;99.90;;;;;;5051491;28;20254;-63
2021/11/13 05:18:39;;;;;;;39.13;27.52;;;2.40;99.90;;;;;;5051847;28;20032;-60
2021/11/13 05:21:05;;;;;;;41.67;28.15;;;2.30;99.90;;;;;;5050991;28;20402;-64
2021/11/13 05:23:30;;;;;;;41.08;28.40;;;2.40;99.90;;;;;;5051781;28;20020;-62
2021/11/13 05:25:57;;;;;;;40.15;28.23;;;2.40;99.90;;;;;;5051069;28;20628;-62
2021/11/13 05:28:23;;;;;;;42.00;28.75;;;2.30;99.90;;;;;;5051784;28;20075;-63
2021/11/13 05:30:48;;;;;;;42.95;28.45;;;2.40;99.90;;;;;;5051788;28;20032;-63
2021/11/13 05:33:14;;;;;;;40.83;28.00;;;2.50;99.90;;;;;;5051632;28;20075;-62
2021/11/13 05:35:40;;;;;;;40.05;27.33;;;2.50;99.90;;;;;;5050523;28;20021;-63
2021/11/13 05:38:06;;;;;;;39.13;26.65;;;2.40;99.90;;;;;;5051760;28;20464;-65
2021/11/13 05:40:31;;;;;;;42.33;28.77;;;2.50;99.90;;;;;;5051723;28;20029;-64
2021/11/13 05:42:57;;;;;;;37.05;26.38;;;2.50;99.90;;;;;;5051431;28;20060;-63
2021/11/13 05:45:23;;;;;;;39.63;26.85;;;2.60;99.90;;;;;;5050988;28;20039;-64
2021/11/13 05:47:49;;;;;;;37.53;26.40;;;2.50;99.90;;;;;;5051520;28;20116;-64
2021/11/13 05:50:17;;;;;;;40.92;27.15;;;3.50;99.90;;;;;;5051010;28;20060;-66
2021/11/13 05:52:45;;;;;;;48.25;30.27;;;2.40;99.90;;;;;;5051526;28;20024;-62
2021/11/13 05:55:12;;;;;;;43.22;29.25;;;2.20;99.90;;;;;;5052881;28;20025;-64
2021/11/13 05:57:39;;;;;;;48.92;31.17;;;3.20;99.90;;;;;;5051984;28;20188;-69
2021/11/13 06:00:08;;;;;;;49.28;32.05;;;2.30;99.90;;;;;;5045784;28;20028;-67
2021/11/13 06:02:33;;;;;;;51.22;32.65;;;2.30;99.90;;;;;;5055112;28;20490;-68
2021/11/13 06:04:59;;;;;;;48.20;31.92;;;2.30;99.90;;;;;;5053882;28;20041;-68
2021/11/13 06:07:25;;;;;;;46.63;30.40;;;2.70;99.90;;;;;;5055233;28;20096;-68
2021/11/13 06:09:50;;;;;;;44.90;30.40;;;2.60;99.90;;;;;;5055020;28;20021;-68
2021/11/13 06:12:16;;;;;;;45.65;30.33;;;2.10;99.90;;;;;;5053237;28;20462;-68
2021/11/13 06:14:42;;;;;;;47.10;31.65;;;2.20;99.90;;;;;;5054693;28;20021;-68
2021/11/13 06:17:08;;;;;;;41.22;29.00;;;2.20;99.90;;;;;;5054952;28;20021;-68
2021/11/13 06:19:35;;;;;;;41.25;28.50;;;2.20;99.90;;;;;;5053965;28;20033;-69
2021/11/13 06:22:01;;;;;;;42.28;28.60;;;2.00;99.90;;;;;;5055258;28;20124;-69
2021/11/13 06:24:27;;;;;;;43.08;28.98;;;2.00;99.90;;;;;;5041332;28;20095;-69
2021/11/13 06:26:53;;;;;;;43.15;29.77;;;2.10;99.90;;;;;;5041819;28;20483;-68
2021/11/13 06:29:19;;;;;;;46.35;29.02;;;2.10;99.90;;;;;;5037627;28;20040;-68
2021/11/13 06:31:44;;;;;;;39.97;28.58;;;2.50;99.90;;;;;;5033413;28;20025;-69
2021/11/13 06:34:10;;;;;;;45.47;31.65;;;2.10;99.90;;;;;;5034843;28;20036;-68
2021/11/13 06:36:36;;;;;;;48.10;30.55;;;2.20;99.90;;;;;;5033350;28;20105;-68
2021/11/13 06:39:02;;;;;;;49.33;31.45;;;2.20;99.90;;;;;;5034616;28;20029;-68
2021/11/13 06:41:30;;;;;;;50.03;31.63;;;2.30;99.90;;;;;;5034914;28;20030;-67
2021/11/13 06:43:58;;;;;;;47.72;29.85;;;2.40;99.90;;;;;;5034716;28;20022;-67
2021/11/13 06:46:23;;;;;;;45.00;31.38;;;2.30;99.90;;;;;;5034078;28;20026;-67
2021/11/13 06:48:49;;;;;;;46.25;30.02;;;2.20;99.90;;;;;;5034563;28;20495;-68
2021/11/13 06:51:15;;;;;;;43.33;28.75;;;2.30;99.90;;;;;;5053067;28;20026;-68
2021/11/13 06:53:41;;;;;;;43.25;28.83;;;2.50;99.90;;;;;;5054431;28;20025;-68
2021/11/13 06:56:08;;;;;;;42.33;28.45;;;2.20;99.90;;;;;;5053674;28;20021;-64
2021/11/13 06:58:34;;;;;;;46.28;28.50;;;3.10;99.90;;;;;;5054764;28;20041;-65
2021/11/13 07:00:59;;;;;;;43.08;29.98;;;2.80;99.90;;;;;;5054347;28;20529;-67
2021/11/13 07:03:25;;;;;;;40.50;27.70;;;2.50;99.90;;;;;;5054072;28;20094;-69
2021/11/13 07:05:51;;;;;;;42.50;29.60;;;2.60;99.90;;;;;;5052812;28;20525;-68
2021/11/13 07:08:16;;;;;;;47.70;30.38;;;2.60;99.90;;;;;;5053854;28;20040;-68
2021/11/13 07:10:42;;;;;;;45.47;29.73;;;2.70;99.90;;;;;;5052294;28;20027;-68
2021/11/13 07:13:08;;;;;;;46.08;29.83;;;2.70;99.90;;;;;;5052059;28;20032;-68
2021/11/13 07:15:34;;;;;;;46.80;31.35;;;2.70;99.90;;;;;;5052246;28;20461;-68
2021/11/13 07:18:02;;;;;;;43.90;29.70;;;2.80;99.90;;;;;;5052944;28;20060;-69
2021/11/13 07:20:30;;;;;;;41.90;29.45;;;2.80;99.90;;;;;;5052453;28;20052;-68
2021/11/13 07:22:56;;;;;;;43.78;30.75;;;2.80;99.90;;;;;;5052944;28;20028;-67
2021/11/13 07:25:25;;;;;;;41.38;27.98;;;2.90;99.90;;;;;;5052247;28;20021;-68
2021/11/13 07:27:51;;;;;;;41.63;28.80;;;2.90;99.90;;;;;;5052872;28;20471;-67
2021/11/13 07:30:19;;;;;;;41.05;28.65;;;3.60;99.90;;;;;;5052792;28;20036;-69
2021/11/13 07:32:47;;;;;;;39.42;27.15;;;3.20;99.90;;;;;;5053251;28;20025;-67
2021/11/13 07:35:13;;;;;;;36.45;27.02;;;3.70;99.90;;;;;;5052829;28;20020;-66
2021/11/13 07:37:38;;;;;;;36.80;26.42;;;3.20;99.90;;;;;;5053702;28;20476;-68
2021/11/13 07:40:05;;;;;;;37.58;27.83;;;3.90;99.90;;;;;;5052310;28;20073;-66
2021/11/13 07:42:31;;;;;;;32.83;24.67;;;3.40;99.90;;;;;;5053749;28;20475;-68
2021/11/13 07:44:59;;;;;;;30.55;23.48;;;3.40;99.90;;;;;;5054231;28;20096;-67
2021/11/13 07:47:25;;;;;;;34.97;23.48;;;3.50;99.90;;;;;;5057775;28;20029;-67
2021/11/13 07:49:51;;;;;;;33.03;24.45;;;3.60;99.90;;;;;;5053103;28;20036;-67
2021/11/13 07:52:16;;;;;;;32.35;23.95;;;3.60;99.90;;;;;;5053459;28;20407;-67
2021/11/13 07:54:42;;;;;;;35.05;25.65;;;3.70;99.90;;;;;;5052859;28;20021;-69
2021/11/13 07:57:08;;;;;;;31.15;23.88;;;4.50;99.90;;;;;;5053641;28;20099;-76
2021/11/13 07:59:35;;;;;;;32.50;22.58;;;5.30;99.90;;;;;;5053174;28;20037;-76
2021/11/13 08:02:00;;;;;;;29.70;22.33;;;5.40;99.90;;;;;;5053116;28;20391;-76
2021/11/13 08:04:26;;;;;;;28.10;20.70;;;5.10;99.90;;;;;;5052712;28;20028;-77
2021/11/13 08:06:52;;;;;;;28.30;21.17;;;4.80;99.90;;;;;;5052987;28;20514;-71
2021/11/13 08:09:17;;;;;;;38.95;27.17;;;4.50;99.90;;;;;;5054557;28;20501;-71
2021/11/13 08:11:43;;;;;;;26.60;20.83;;;4.60;99.90;;;;;;5069907;28;20527;-71
2021/11/13 08:14:09;;;;;;;27.02;21.63;;;4.30;99.90;;;;;;5053649;28;20047;-70
2021/11/13 08:16:36;;;;;;;29.02;22.33;;;4.60;99.90;;;;;;5053256;28;20071;-71
2021/11/13 08:19:02;;;;;;;25.48;20.15;;;4.20;99.90;;;;;;5059455;28;20040;-70
2021/11/13 08:21:27;;;;;;;29.75;21.10;;;4.30;99.90;;;;;;5054533;28;20029;-70
2021/11/13 08:23:53;;;;;;;27.63;20.73;;;4.40;99.90;;;;;;5053003;28;20054;-67
2021/11/13 08:26:19;;;;;;;26.63;21.02;;;4.50;99.90;;;;;;5052117;28;20386;-69
2021/11/13 08:28:45;;;;;;;26.95;21.00;;;4.70;99.90;;;;;;5053187;28;20041;-70
2021/11/13 08:31:11;;;;;;;45.13;31.92;;;4.40;99.90;;;;;;5055447;28;20032;-67
2021/11/13 08:33:36;;;;;;;27.67;21.00;;;4.90;99.90;;;;;;5054001;28;20028;-69
2021/11/13 08:36:03;;;;;;;28.35;21.38;;;4.80;99.90;;;;;;5051745;28;20047;-69
2021/11/13 08:38:28;;;;;;;25.00;19.33;;;4.60;99.90;;;;;;5052505;28;20025;-69
2021/11/13 08:40:56;;;;;;;23.25;19.60;;;4.70;99.90;;;;;;5052662;28;20036;-68
2021/11/13 08:43:22;;;;;;;23.80;19.38;;;4.60;99.90;;;;;;5052491;28;20041;-67
2021/11/13 08:45:49;;;;;;;26.88;18.55;;;4.80;99.90;;;;;;5051773;28;20027;-69
2021/11/13 08:48:17;;;;;;;25.92;18.63;;;5.20;99.90;;;;;;5052162;28;20529;-70
2021/11/13 08:50:44;;;;;;;25.42;19.52;;;4.90;99.90;;;;;;5052066;28;20017;-70
2021/11/13 08:53:11;;;;;;;22.30;17.85;;;4.90;99.90;;;;;;5052304;28;20086;-70
2021/11/13 08:55:38;;;;;;;25.00;19.20;;;4.80;99.90;;;;;;5051510;28;20086;-68
2021/11/13 08:58:05;;;;;;;24.92;18.42;;;4.90;99.90;;;;;;5050798;28;20085;-70
2021/11/13 09:00:34;;;;;;;25.13;19.75;;;5.00;99.90;;;;;;5052008;28;20025;-70
2021/11/13 09:03:04;;;;;;;27.38;20.25;;;5.00;99.90;;;;;;5051867;28;20450;-70
2021/11/13 09:05:31;;;;;;;24.73;19.48;;;5.00;99.90;;;;;;5051042;28;20139;-71
2021/11/13 09:07:57;;;;;;;25.83;19.90;;;5.20;99.90;;;;;;5051880;28;20081;-69
2021/11/13 09:10:23;;;;;;;24.50;19.48;;;5.20;99.90;;;;;;5031628;28;20028;-69
2021/11/13 09:12:49;;;;;;;24.38;19.67;;;5.20;99.90;;;;;;5032392;28;20097;-67
2021/11/13 09:15:21;;;;;;;47.45;36.10;;;5.10;99.90;;;;;;5034392;28;20025;-66
2021/11/13 09:17:47;;;;;;;28.63;18.57;;;5.30;99.90;;;;;;5034767;28;20022;-70
2021/11/13 09:20:12;;;;;;;25.83;19.45;;;5.10;99.90;;;;;;5050178;28;20039;-71
2021/11/13 09:22:38;;;;;;;24.45;18.80;;;5.20;99.90;;;;;;5051753;28;20055;-70
2021/11/13 09:25:08;;;;;;;24.27;19.33;;;5.20;99.90;;;;;;5051050;28;20028;-70
2021/11/13 09:27:40;;;;;;;24.52;19.60;;;5.20;99.90;;;;;;5051721;28;20024;-70
2021/11/13 09:30:09;;;;;;;25.25;19.27;;;5.30;99.90;;;;;;5051006;28;20095;-71
2021/11/13 09:32:35;;;;;;;26.15;18.63;;;5.40;99.90;;;;;;5051670;28;20025;-70
2021/11/13 09:35:01;;;;;;;25.20;18.17;;;5.90;99.90;;;;;;5050576;28;20139;-70
2021/11/13 09:37:29;;;;;;;29.15;19.08;;;5.90;99.90;;;;;;5051337;28;20063;-70
2021/11/13 09:39:55;;;;;;;23.13;18.02;;;6.50;99.90;;;;;;5051611;28;20079;-71
2021/11/13 09:42:22;;;;;;;20.88;16.98;;;7.60;99.90;;;;;;5051557;28;20025;-71
2021/11/13 09:44:48;;;;;;;19.95;16.50;;;9.20;99.90;;;;;;5050188;28;20044;-71
2021/11/13 09:47:14;;;;;;;21.80;15.95;;;9.60;99.90;;;;;;5048912;28;20115;-71
2021/11/13 09:49:40;;;;;;;19.92;16.27;;;9.40;99.90;;;;;;5049622;28;20117;-71
2021/11/13 09:52:07;;;;;;;31.77;17.33;;;9.30;99.90;;;;;;5046801;28;20024;-71
2021/11/13 09:54:32;;;;;;;19.50;16.75;;;8.80;99.90;;;;;;5050780;28;20067;-70
2021/11/13 09:56:58;;;;;;;21.77;16.88;;;8.50;99.90;;;;;;5050700;28;20387;-71
2021/11/13 09:59:24;;;;;;;22.05;15.50;;;8.60;99.90;;;;;;5051242;28;20035;-71
2021/11/13 10:01:50;;;;;;;17.73;14.85;;;9.50;99.90;;;;;;5051409;28;20025;-70
2021/11/13 10:04:16;;;;;;;17.30;14.77;;;11.00;99.90;;;;;;5050962;28;20476;-71
2021/11/13 10:06:42;;;;;;;20.00;14.02;;;12.10;99.90;;;;;;5050812;28;20126;-71
2021/11/13 10:09:09;;;;;;;17.58;14.82;;;12.20;99.90;;;;;;5051334;28;20031;-71
2021/11/13 10:11:40;;;;;;;17.40;14.82;;;12.00;99.90;;;;;;5050137;28;20108;-70
2021/11/13 10:14:06;;;;;;;22.38;14.38;;;11.50;99.90;;;;;;5051451;28;20033;-71
2021/11/13 10:16:35;;;;;;;17.33;15.20;;;11.20;99.90;;;;;;5049328;28;20514;-71
2021/11/13 10:19:09;;;;;;;20.10;16.38;;;10.50;99.90;;;;;;5050877;28;20090;-71
2021/11/13 10:21:39;;;;;;;21.08;17.67;;;10.20;99.90;;;;;;5050378;28;20029;-71
2021/11/13 10:24:15;;;;;;;21.42;17.58;;;9.80;99.90;;;;;;5066212;22;20110;-73
2021/11/13 10:26:53;;;;;;;20.23;16.75;;;9.20;99.90;;;;;;5033501;28;20026;-74
2021/11/13 10:29:28;;;;;;;25.73;17.30;;;8.90;99.90;;;;;;5031077;28;20038;-74
2021/11/13 10:32:07;;;;;;;22.70;17.17;;;8.70;99.90;;;;;;5031201;28;20426;-75
2021/11/13 10:34:36;;;;;;;22.33;16.23;;;8.60;99.90;;;;;;5030197;28;20111;-74
2021/11/13 10:37:06;;;;;;;23.50;16.58;;;8.40;99.90;;;;;;5031267;28;20399;-74
2021/11/13 10:39:35;;;;;;;22.98;17.77;;;8.20;99.90;;;;;;5030819;28;20053;-75
2021/11/13 10:42:12;;;;;;;23.40;17.73;;;8.30;99.90;;;;;;5034051;28;20043;-74
2021/11/13 10:44:44;;;;;;;23.65;17.85;;;8.30;99.90;;;;;;5034143;28;20040;-74
2021/11/13 10:47:15;;;;;;;21.60;17.70;;;8.20;99.90;;;;;;5034728;28;20025;-75
2021/11/13 10:49:41;;;;;;;24.83;18.23;;;8.10;99.90;;;;;;5034653;28;20029;-74
2021/11/13 10:52:09;;;;;;;21.98;16.95;;;8.00;99.90;;;;;;5034754;28;20018;-74
2021/11/13 10:54:36;;;;;;;20.15;18.02;;;8.00;99.90;;;;;;5051531;28;20100;-74
2021/11/13 10:57:05;;;;;;;23.30;18.13;;;8.10;99.90;;;;;;5054502;28;20025;-75
2021/11/13 10:59:34;;;;;;;22.27;17.65;;;8.10;99.90;;;;;;5054540;28;20060;-75
2021/11/13 11:02:02;;;;;;;25.98;19.10;;;8.30;99.90;;;;;;5054508;28;20048;-75
2021/11/13 11:04:34;;;;;;;25.85;19.77;;;8.40;99.90;;;;;;5053554;28;20068;-74
2021/11/13 11:07:10;;;;;;;25.40;18.80;;;8.40;99.90;;;;;;5054505;28;20510;-76
2021/11/13 11:09:46;;;;;;;22.73;17.85;;;8.60;99.90;;;;;;5054415;28;20068;-75
2021/11/13 11:12:15;;;;;;;21.70;17.92;;;8.50;99.90;;;;;;5054257;28;20027;-75
2021/11/13 11:14:44;;;;;;;26.13;18.77;;;8.50;99.90;;;;;;5053291;28;20029;-75
2021/11/13 11:17:13;;;;;;;25.48;19.08;;;8.50;99.90;;;;;;5051159;28;20083;-75
2021/11/13 11:19:42;;;;;;;28.15;20.85;;;8.50;99.90;;;;;;5037773;28;20037;-74
2021/11/13 11:22:29;;;;;;;26.33;19.08;;;8.60;99.90;;;;;;5034446;28;20030;-74
2021/11/13 11:25:01;;;;;;;26.33;19.48;;;8.70;99.90;;;;;;5033636;28;20698;-75
2021/11/13 11:27:34;;;;;;;23.13;18.60;;;8.60;99.90;;;;;;5034273;28;20101;-74
2021/11/13 11:30:01;;;;;;;22.48;17.42;;;8.50;99.90;;;;;;5016611;28;20021;-75
2021/11/13 11:32:34;;;;;;;24.60;17.25;;;8.40;99.90;;;;;;5016420;28;20112;-75
2021/11/13 11:35:06;;;;;;;31.20;18.98;;;8.50;99.90;;;;;;5033401;28;20136;-74
2021/11/13 11:37:38;;;;;;;31.73;22.08;;;8.50;99.90;;;;;;5034060;28;20411;-76
2021/11/13 11:40:08;;;;;;;35.90;23.55;;;8.40;99.90;;;;;;5033986;28;20476;-74
2021/11/13 11:42:34;;;;;;;39.38;24.02;;;8.50;99.90;;;;;;5034062;28;20452;-74
2021/11/13 11:45:01;;;;;;;33.88;21.50;;;8.60;99.90;;;;;;5040905;28;20021;-73
2021/11/13 11:47:29;;;;;;;30.38;21.20;;;8.70;99.90;;;;;;5053594;28;20094;-73
2021/11/13 11:49:56;;;;;;;29.70;20.27;;;8.70;99.90;;;;;;5053509;28;20551;-73
2021/11/13 11:52:24;;;;;;;32.17;20.15;;;8.90;99.90;;;;;;5052841;28;20082;-73
2021/11/13 11:54:51;;;;;;;28.52;19.30;;;8.70;99.90;;;;;;5032788;28;20017;-73
2021/11/13 11:57:29;;;;;;;26.27;18.13;;;8.60;99.90;;;;;;5053542;28;20068;-72
2021/11/13 12:00:01;;;;;;;28.40;18.45;;;8.70;99.90;;;;;;5056477;28;20033;-77
2021/11/13 12:02:39;;;;;;;24.48;18.20;;;8.90;99.90;;;;;;5062183;28;20036;-71
2021/11/13 12:05:10;;;;;;;22.92;17.25;;;9.00;99.90;;;;;;5074963;28;20030;-71
2021/11/13 12:07:37;;;;;;;24.55;17.27;;;8.90;99.90;;;;;;5060348;28;20116;-72
2021/11/13 12:10:19;;;;;;;20.38;15.45;;;8.80;99.90;;;;;;5047592;28;20033;-73
2021/11/13 12:13:06;;;;;;;25.95;16.52;;;8.80;99.90;;;;;;5057846;28;20067;-73
2021/11/13 12:15:54;;;;;;;21.58;15.18;;;8.90;99.90;;;;;;5061105;28;20710;-74
2021/11/13 12:18:22;;;;;;;21.60;17.67;;;9.00;99.90;;;;;;5063420;28;20029;-75
2021/11/13 12:20:51;;;;;;;28.85;20.13;;;9.00;99.90;;;;;;5066229;28;20032;-73
2021/11/13 12:23:36;;;;;;;30.75;19.77;;;8.60;99.90;;;;;;5070551;28;20060;-73
2021/11/13 12:26:22;;;;;;;21.85;16.95;;;8.90;99.90;;;;;;5059503;28;20029;-72
2021/11/13 12:28:47;;;;;;;19.58;14.80;;;8.80;99.90;;;;;;5051758;28;20051;-73
2021/11/13 12:31:36;;;;;;;22.70;19.00;;;8.80;99.90;;;;;;5061690;28;20025;-72
2021/11/13 12:34:18;;;;;;;23.63;15.80;;;8.50;99.90;;;;;;5055824;28;20052;-74
2021/11/13 12:37:03;;;;;;;19.17;15.70;;;8.80;99.90;;;;;;5048271;28;20104;-78
2021/11/13 12:39:37;;;;;;;20.67;15.25;;;8.80;99.90;;;;;;5044748;28;20048;-71